Time;durP1;ratioP1;P1;durP2;ratioP2;P2;SDS_P1;SDS_P2;PMS_P1;PMS_P2;Temp;Humidity;BMP_temperature;BMP_pressure;BME280_temperature;BME280_humidity;BME280_pressure;Samples;Min_cycle;Max_cycle;Signal;HPM_P1;HPM_P2
2021/03/04 00:02:13;;;;;;;60.97;35.70;;;5.50;99.90;;;;;;5009776;28;20032;-60
2021/03/04 00:04:39;;;;;;;65.25;34.75;;;5.50;99.90;;;;;;5008425;28;20150;-54
2021/03/04 00:07:05;;;;;;;59.15;35.15;;;5.40;99.90;;;;;;4991157;28;20121;-58
2021/03/04 00:09:31;;;;;;;64.72;36.05;;;5.40;99.90;;;;;;4989759;28;20041;-60
2021/03/04 00:11:56;;;;;;;60.97;32.28;;;5.30;99.90;;;;;;5008769;28;20029;-57
2021/03/04 00:14:23;;;;;;;56.67;33.28;;;5.20;99.90;;;;;;5009128;28;20032;-55
2021/03/04 00:16:49;;;;;;;65.72;33.22;;;5.20;99.90;;;;;;4990642;28;20026;-60
2021/03/04 00:19:15;;;;;;;64.70;35.63;;;5.10;99.90;;;;;;5010906;28;20029;-58
2021/03/04 00:21:41;;;;;;;63.63;37.55;;;5.10;99.90;;;;;;5008902;28;20038;-59
2021/03/04 00:24:07;;;;;;;61.15;33.08;;;5.10;99.90;;;;;;5007539;28;20109;-60
2021/03/04 00:26:33;;;;;;;58.97;33.70;;;5.00;99.90;;;;;;4990983;28;20040;-59
2021/03/04 00:28:59;;;;;;;61.50;34.17;;;5.00;99.90;;;;;;4990368;28;20030;-62
2021/03/04 00:31:25;;;;;;;59.78;32.80;;;4.90;99.90;;;;;;4991257;28;20041;-61
2021/03/04 00:33:50;;;;;;;63.90;35.65;;;4.90;99.90;;;;;;5008743;28;20088;-59
2021/03/04 00:36:16;;;;;;;67.88;36.08;;;4.90;99.90;;;;;;5008358;28;20034;-61
2021/03/04 00:38:42;;;;;;;67.82;36.92;;;5.00;99.90;;;;;;5006640;28;20490;-62
2021/03/04 00:41:08;;;;;;;62.63;35.38;;;5.10;99.90;;;;;;5008221;28;20028;-60
2021/03/04 00:43:34;;;;;;;60.80;33.78;;;5.20;99.90;;;;;;5008307;28;20584;-58
2021/03/04 00:45:59;;;;;;;62.47;32.15;;;5.20;99.90;;;;;;5008315;28;20083;-60
2021/03/04 00:48:25;;;;;;;61.75;34.47;;;5.10;99.90;;;;;;5007635;28;20025;-58
2021/03/04 00:50:51;;;;;;;65.47;35.58;;;5.00;99.90;;;;;;5008237;28;20069;-64
2021/03/04 00:53:16;;;;;;;72.65;36.33;;;5.00;99.90;;;;;;5007680;28;20041;-61
2021/03/04 00:55:42;;;;;;;77.22;38.38;;;5.00;99.90;;;;;;4990779;28;20038;-62
2021/03/04 00:58:08;;;;;;;79.20;39.30;;;5.10;99.90;;;;;;5008437;28;20093;-62
2021/03/04 01:00:34;;;;;;;77.38;40.40;;;5.10;99.90;;;;;;4990087;28;20026;-63
2021/03/04 01:02:59;;;;;;;78.03;41.85;;;5.10;99.90;;;;;;5008030;28;20026;-62
2021/03/04 01:05:25;;;;;;;85.50;40.38;;;5.10;99.90;;;;;;4988986;28;20022;-60
2021/03/04 01:07:51;;;;;;;82.47;42.17;;;5.10;99.90;;;;;;5007593;28;20030;-62
2021/03/04 01:10:21;;;;;;;88.97;41.95;;;5.10;99.90;;;;;;5008134;28;20026;-63
2021/03/04 01:12:47;;;;;;;92.85;43.58;;;5.00;99.90;;;;;;5038371;22;20056;-63
2021/03/04 01:15:16;;;;;;;103.65;45.30;;;5.00;99.90;;;;;;5047279;28;20022;-63
2021/03/04 01:17:41;;;;;;;;;;;5.10;99.90;;;;;;5047620;28;20107;-62
2021/03/04 01:20:10;;;;;;;83.55;41.75;;;5.00;99.90;;;;;;5029516;28;20391;-64
2021/03/04 01:22:36;;;;;;;96.80;42.80;;;4.90;99.90;;;;;;5030373;28;20028;-62
2021/03/04 01:25:02;;;;;;;88.13;45.70;;;4.90;99.90;;;;;;5030512;28;20687;-64
2021/03/04 01:27:29;;;;;;;94.18;44.10;;;5.00;99.90;;;;;;5048330;28;20021;-60
2021/03/04 01:29:54;;;;;;;111.22;44.85;;;4.90;99.90;;;;;;5047743;28;20453;-62
2021/03/04 01:32:20;;;;;;;98.63;43.90;;;5.00;99.90;;;;;;5048366;28;20029;-63
2021/03/04 01:34:46;;;;;;;111.85;46.08;;;4.90;99.90;;;;;;5049405;28;20032;-61
2021/03/04 01:37:12;;;;;;;100.85;45.75;;;5.00;99.90;;;;;;5049923;28;20064;-63
2021/03/04 01:39:38;;;;;;;103.18;46.60;;;5.00;99.90;;;;;;5031444;28;20059;-62
2021/03/04 01:42:04;;;;;;;96.35;44.65;;;5.10;99.90;;;;;;5031852;28;20025;-64
2021/03/04 01:44:30;;;;;;;94.10;42.72;;;5.10;99.90;;;;;;5032017;28;20048;-62
2021/03/04 01:46:56;;;;;;;97.93;44.08;;;5.10;99.90;;;;;;5031885;28;20473;-63
2021/03/04 01:49:22;;;;;;;101.63;44.80;;;5.00;99.90;;;;;;5031372;28;20099;-63
2021/03/04 01:51:48;;;;;;;90.80;41.17;;;5.00;99.90;;;;;;5049865;28;20037;-64
2021/03/04 01:54:15;;;;;;;99.03;42.35;;;5.10;99.90;;;;;;5049897;28;20368;-64
2021/03/04 01:56:41;;;;;;;86.72;39.90;;;5.20;99.90;;;;;;5049836;28;20108;-63
2021/03/04 01:59:07;;;;;;;94.68;43.30;;;5.10;99.90;;;;;;5049205;28;20100;-63
2021/03/04 02:01:34;;;;;;;100.18;37.83;;;5.10;99.90;;;;;;5049890;28;20018;-63
2021/03/04 02:04:00;;;;;;;94.32;37.90;;;5.10;99.90;;;;;;5049823;28;20021;-64
2021/03/04 02:06:54;;;;;;;87.57;39.33;;;5.10;99.90;;;;;;5049794;28;20033;-65
2021/03/04 02:09:21;;;;;;;119.88;38.65;;;5.10;99.90;;;;;;5035779;28;20184;-63
2021/03/04 02:12:04;;;;;;;97.53;43.42;;;5.10;99.90;;;;;;5049667;28;20029;-64
2021/03/04 02:14:52;;;;;;;91.88;40.47;;;5.00;99.90;;;;;;5031372;28;20036;-62
2021/03/04 02:17:21;;;;;;;95.30;40.70;;;5.10;99.90;;;;;;5032571;28;20521;-61
2021/03/04 02:20:02;;;;;;;87.63;39.72;;;5.10;99.90;;;;;;5052658;28;20017;-63
2021/03/04 02:22:47;;;;;;;73.78;37.33;;;5.10;99.90;;;;;;5035333;28;20061;-64
2021/03/04 02:25:38;;;;;;;75.07;36.72;;;5.10;99.90;;;;;;5053234;28;20065;-64
2021/03/04 02:28:06;;;;;;;76.22;36.33;;;5.20;99.90;;;;;;5053052;28;20690;-62
2021/03/04 02:30:34;;;;;;;78.13;38.37;;;5.10;99.90;;;;;;5052383;28;20055;-63
2021/03/04 02:33:22;;;;;;;79.85;38.17;;;5.00;99.90;;;;;;5035024;28;20363;-64
2021/03/04 02:35:49;;;;;;;96.00;41.10;;;5.00;99.90;;;;;;5035036;28;20112;-64
2021/03/04 02:38:18;;;;;;;102.40;41.50;;;5.00;99.90;;;;;;5052677;28;20074;-62
2021/03/04 02:40:46;;;;;;;116.13;39.45;;;5.00;99.90;;;;;;5035206;28;20029;-62
2021/03/04 02:43:15;;;;;;;90.90;41.50;;;4.90;99.90;;;;;;5052732;28;20069;-62
2021/03/04 02:45:44;;;;;;;;;;;4.90;99.90;;;;;;5053128;28;20159;-64
2021/03/04 02:48:15;;;;;;;80.55;38.83;;;5.00;99.90;;;;;;5052415;28;19905;-63
2021/03/04 02:50:42;;;;;;;84.47;38.75;;;5.00;99.90;;;;;;5052284;28;20032;-61
2021/03/04 02:53:08;;;;;;;85.28;36.80;;;5.00;99.90;;;;;;5052498;28;20048;-62
2021/03/04 02:55:35;;;;;;;91.28;39.08;;;5.00;99.90;;;;;;5052573;28;20020;-64
2021/03/04 02:58:01;;;;;;;78.10;37.05;;;5.00;99.90;;;;;;5052316;28;20032;-62
2021/03/04 03:00:29;;;;;;;88.55;38.83;;;5.00;99.90;;;;;;5052073;28;20384;-63
2021/03/04 03:02:57;;;;;;;83.68;36.17;;;4.80;99.90;;;;;;5052570;28;20044;-64
2021/03/04 03:05:25;;;;;;;96.03;38.67;;;4.90;99.90;;;;;;5034324;28;20469;-64
2021/03/04 03:07:52;;;;;;;93.30;39.83;;;4.90;99.90;;;;;;5052045;28;20021;-63
2021/03/04 03:10:18;;;;;;;90.95;39.35;;;4.90;99.90;;;;;;5033636;28;20115;-63
2021/03/04 03:12:47;;;;;;;94.15;39.80;;;4.90;99.90;;;;;;5051709;28;20145;-63
2021/03/04 03:15:18;;;;;;;92.70;40.63;;;4.80;99.90;;;;;;5052302;28;20021;-64
2021/03/04 03:17:46;;;;;;;97.57;39.97;;;4.80;99.90;;;;;;5034194;28;20538;-63
2021/03/04 03:20:18;;;;;;;92.40;38.65;;;4.90;99.90;;;;;;5051773;28;20047;-63
2021/03/04 03:22:44;;;;;;;99.25;42.03;;;5.00;99.90;;;;;;5052147;28;20020;-64
2021/03/04 03:25:11;;;;;;;99.50;41.15;;;5.00;99.90;;;;;;5051930;28;20025;-63
2021/03/04 03:27:39;;;;;;;99.80;43.95;;;4.90;99.90;;;;;;5051404;28;20025;-66
2021/03/04 03:30:08;;;;;;;115.93;42.33;;;4.90;99.90;;;;;;5033010;28;20083;-63
2021/03/04 03:32:34;;;;;;;102.50;41.95;;;4.90;99.90;;;;;;5033840;28;20282;-62
2021/03/04 03:35:04;;;;;;;104.75;42.58;;;4.80;99.90;;;;;;5051745;28;20082;-64
2021/03/04 03:37:30;;;;;;;111.97;44.20;;;4.80;99.90;;;;;;5033613;28;20452;-63
2021/03/04 03:39:57;;;;;;;109.47;42.58;;;4.90;99.90;;;;;;5033292;28;20025;-62
2021/03/04 03:42:24;;;;;;;105.03;44.58;;;4.90;99.90;;;;;;5033706;28;20087;-59
2021/03/04 03:44:52;;;;;;;114.70;42.05;;;4.90;99.90;;;;;;5051319;28;20102;-62
2021/03/04 03:47:18;;;;;;;109.45;47.22;;;4.90;99.90;;;;;;5033548;28;20167;-59
2021/03/04 03:49:46;;;;;;;111.60;43.17;;;4.90;99.90;;;;;;5032885;28;20626;-62
2021/03/04 03:52:12;;;;;;;110.85;46.30;;;4.70;99.90;;;;;;5051470;28;20021;-62
2021/03/04 03:54:39;;;;;;;108.45;43.13;;;4.80;99.90;;;;;;5051353;28;20028;-61
2021/03/04 03:57:07;;;;;;;138.52;43.97;;;4.90;99.90;;;;;;5017100;28;20033;-62
2021/03/04 03:59:35;;;;;;;109.20;43.67;;;5.00;99.90;;;;;;5049850;28;20021;-63
2021/03/04 04:02:01;;;;;;;114.30;47.22;;;5.10;99.90;;;;;;5050296;28;20921;-63
2021/03/04 04:04:27;;;;;;;116.70;43.47;;;5.00;99.90;;;;;;5051092;28;20435;-63
2021/03/04 04:06:53;;;;;;;116.38;44.08;;;5.00;99.90;;;;;;5050630;28;20025;-63
2021/03/04 04:09:20;;;;;;;119.70;45.38;;;5.00;99.90;;;;;;5032528;28;20520;-63
2021/03/04 04:11:45;;;;;;;113.78;41.90;;;5.00;99.90;;;;;;5033131;28;20148;-64
2021/03/04 04:14:11;;;;;;;116.43;45.35;;;5.00;99.90;;;;;;5016267;28;20033;-63
2021/03/04 04:16:37;;;;;;;108.85;41.35;;;5.00;99.90;;;;;;5050578;28;20387;-61
2021/03/04 04:19:04;;;;;;;97.65;40.63;;;4.90;99.90;;;;;;5032341;28;20078;-63
2021/03/04 04:21:30;;;;;;;103.75;41.50;;;4.80;99.90;;;;;;5033182;28;20082;-63
2021/03/04 04:23:56;;;;;;;106.13;41.53;;;4.70;99.90;;;;;;5032675;28;20036;-63
2021/03/04 04:26:23;;;;;;;111.53;42.50;;;4.60;99.90;;;;;;5051058;28;20112;-63
2021/03/04 04:28:49;;;;;;;94.60;37.75;;;4.60;99.90;;;;;;5032087;28;20049;-63
2021/03/04 04:31:15;;;;;;;95.55;39.17;;;4.70;99.90;;;;;;5032854;28;20358;-61
2021/03/04 04:33:40;;;;;;;85.82;37.30;;;4.60;99.90;;;;;;5051068;28;20035;-63
2021/03/04 04:36:07;;;;;;;90.32;35.35;;;4.60;99.90;;;;;;5032683;28;20073;-63
2021/03/04 04:38:33;;;;;;;85.93;37.15;;;4.70;99.90;;;;;;5031993;28;20052;-63
2021/03/04 04:40:59;;;;;;;87.57;36.17;;;4.50;99.90;;;;;;5050399;28;20021;-63
2021/03/04 04:43:25;;;;;;;88.95;36.67;;;4.50;99.90;;;;;;5050538;28;20396;-63
2021/03/04 04:45:51;;;;;;;85.43;34.85;;;4.50;99.90;;;;;;5050724;28;20029;-63
2021/03/04 04:48:17;;;;;;;83.22;36.80;;;4.50;99.90;;;;;;5050373;28;20025;-64
2021/03/04 04:50:43;;;;;;;86.25;40.47;;;4.40;99.90;;;;;;5050492;28;20025;-62
2021/03/04 04:53:10;;;;;;;80.53;36.70;;;4.50;99.90;;;;;;5050645;28;20024;-62
2021/03/04 04:55:36;;;;;;;91.22;37.22;;;4.50;99.90;;;;;;5032504;28;20028;-63
2021/03/04 04:58:02;;;;;;;76.15;32.60;;;4.50;99.90;;;;;;5032407;28;20685;-63
2021/03/04 05:00:27;;;;;;;85.82;35.78;;;4.50;99.90;;;;;;5049987;28;20036;-59
2021/03/04 05:02:53;;;;;;;78.15;33.28;;;4.50;99.90;;;;;;5050172;28;20120;-63
2021/03/04 05:05:19;;;;;;;80.57;34.38;;;4.70;99.90;;;;;;5050321;28;20404;-63
2021/03/04 05:07:45;;;;;;;84.20;34.15;;;4.80;99.90;;;;;;5050081;28;20040;-64
2021/03/04 05:10:11;;;;;;;77.70;32.60;;;4.70;99.90;;;;;;5049876;28;20036;-64
2021/03/04 05:12:38;;;;;;;72.47;33.05;;;4.80;99.90;;;;;;5049295;28;20085;-63
2021/03/04 05:15:11;;;;;;;86.32;36.55;;;4.80;99.90;;;;;;5050352;28;20111;-64
2021/03/04 05:17:37;;;;;;;85.78;33.30;;;4.80;99.90;;;;;;5050372;28;20029;-63
2021/03/04 05:20:04;;;;;;;95.78;37.05;;;4.80;99.90;;;;;;5050171;28;20503;-64
2021/03/04 05:22:30;;;;;;;86.28;35.97;;;4.90;99.90;;;;;;5050963;28;20025;-64
2021/03/04 05:24:56;;;;;;;94.88;37.13;;;4.90;99.90;;;;;;5032794;28;20121;-63
2021/03/04 05:27:23;;;;;;;90.22;37.95;;;4.60;99.90;;;;;;5032932;28;20029;-64
2021/03/04 05:29:49;;;;;;;79.90;34.53;;;4.60;99.90;;;;;;5049629;28;20024;-65
2021/03/04 05:32:18;;;;;;;80.72;34.58;;;4.70;99.90;;;;;;5031960;28;20395;-64
2021/03/04 05:34:44;;;;;;;74.15;32.13;;;4.80;99.90;;;;;;5031783;28;20025;-63
2021/03/04 05:37:10;;;;;;;87.22;37.38;;;4.70;99.90;;;;;;5049809;28;20037;-62
2021/03/04 05:39:36;;;;;;;80.07;38.17;;;4.60;99.90;;;;;;5049010;28;20614;-59
2021/03/04 05:42:06;;;;;;;92.57;36.55;;;4.60;99.90;;;;;;5031876;28;20021;-63
2021/03/04 05:44:32;;;;;;;92.60;35.88;;;4.50;99.90;;;;;;5031815;28;20021;-63
2021/03/04 05:46:58;;;;;;;105.03;38.60;;;4.60;99.90;;;;;;5031927;28;20032;-63
2021/03/04 05:49:29;;;;;;;83.05;33.88;;;4.50;99.90;;;;;;5031590;28;20488;-64
2021/03/04 05:51:58;;;;;;;90.88;39.58;;;4.50;99.90;;;;;;5051385;28;20870;-61
2021/03/04 05:54:27;;;;;;;89.88;37.45;;;4.40;99.90;;;;;;5035438;28;20029;-63
2021/03/04 05:56:54;;;;;;;101.93;39.08;;;4.30;99.90;;;;;;5053437;28;20075;-62
2021/03/04 05:59:22;;;;;;;103.63;38.92;;;4.40;99.90;;;;;;5052652;28;20032;-63
2021/03/04 06:01:49;;;;;;;105.30;38.88;;;4.40;99.90;;;;;;5053609;28;20025;-62
2021/03/04 06:04:15;;;;;;;101.70;40.13;;;4.20;99.90;;;;;;5053416;28;20520;-64
2021/03/04 06:06:40;;;;;;;111.03;42.67;;;4.20;99.90;;;;;;5053106;28;20078;-64
2021/03/04 06:09:06;;;;;;;79.05;35.78;;;4.30;99.90;;;;;;5052531;28;20048;-61
2021/03/04 06:11:36;;;;;;;89.20;37.25;;;4.40;99.90;;;;;;5053579;28;20028;-62
2021/03/04 06:14:03;;;;;;;88.65;35.75;;;4.30;99.90;;;;;;5035093;28;20029;-62
2021/03/04 06:16:28;;;;;;;85.65;32.20;;;4.30;99.90;;;;;;5053286;28;20027;-60
2021/03/04 06:18:55;;;;;;;76.97;34.30;;;4.20;99.90;;;;;;5034705;28;20017;-63
2021/03/04 06:21:22;;;;;;;91.03;34.83;;;4.20;99.90;;;;;;5053368;28;20503;-62
2021/03/04 06:23:49;;;;;;;86.35;35.90;;;4.30;99.90;;;;;;5053289;28;20045;-63
2021/03/04 06:26:23;;;;;;;85.65;35.25;;;4.30;99.90;;;;;;5053232;28;20036;-62
2021/03/04 06:28:49;;;;;;;87.40;32.40;;;4.50;99.90;;;;;;5052473;28;20062;-58
2021/03/04 06:31:21;;;;;;;87.95;35.83;;;4.50;99.90;;;;;;5052784;28;20063;-61
2021/03/04 06:33:47;;;;;;;97.10;36.03;;;4.50;99.90;;;;;;5035111;28;20033;-61
2021/03/04 06:36:15;;;;;;;82.32;38.10;;;4.50;99.90;;;;;;5053109;28;20503;-59
2021/03/04 06:38:40;;;;;;;85.55;34.05;;;4.60;99.90;;;;;;5052270;28;20122;-57
2021/03/04 06:41:19;;;;;;;75.45;31.65;;;4.60;99.90;;;;;;5052464;28;20021;-64
2021/03/04 06:43:45;;;;;;;82.32;33.53;;;4.70;99.90;;;;;;5052600;28;20029;-64
2021/03/04 06:46:12;;;;;;;94.90;35.70;;;4.70;99.90;;;;;;5052640;28;20100;-64
2021/03/04 06:48:38;;;;;;;78.50;32.70;;;4.60;99.90;;;;;;5051725;28;20036;-62
2021/03/04 06:51:05;;;;;;;84.20;34.33;;;4.70;99.90;;;;;;5052344;28;20068;-62
2021/03/04 06:53:32;;;;;;;94.95;38.33;;;4.70;99.90;;;;;;5052351;28;20020;-62
2021/03/04 06:56:06;;;;;;;107.30;36.42;;;4.60;99.90;;;;;;5052407;28;20078;-63
2021/03/04 06:58:39;;;;;;;110.15;36.30;;;4.60;99.90;;;;;;5052175;28;20021;-63
2021/03/04 07:01:05;;;;;;;91.53;34.40;;;4.70;99.90;;;;;;5034407;28;20032;-64
2021/03/04 07:03:37;;;;;;;105.18;35.22;;;4.70;99.90;;;;;;5052193;28;20025;-64
2021/03/04 07:06:05;;;;;;;100.22;34.83;;;4.70;99.90;;;;;;5052349;28;20028;-63
2021/03/04 07:08:34;;;;;;;89.50;34.70;;;4.60;99.90;;;;;;5051639;28;20056;-64
2021/03/04 07:11:05;;;;;;;108.80;35.70;;;4.60;99.90;;;;;;5052114;28;20060;-61
2021/03/04 07:13:36;;;;;;;99.22;33.58;;;4.50;99.90;;;;;;5076066;22;20045;-61
2021/03/04 07:16:07;;;;;;;97.60;34.60;;;4.40;99.90;;;;;;5053554;28;20416;-62
2021/03/04 07:18:53;;;;;;;91.95;34.83;;;4.40;99.90;;;;;;5053063;28;20021;-61
2021/03/04 07:21:20;;;;;;;90.70;34.45;;;4.40;99.90;;;;;;5035653;28;20021;-62
2021/03/04 07:23:46;;;;;;;93.57;33.72;;;4.50;99.90;;;;;;5045331;28;20105;-61
2021/03/04 07:26:13;;;;;;;95.40;32.05;;;4.50;99.90;;;;;;5033052;28;20100;-62
2021/03/04 07:28:47;;;;;;;99.22;36.03;;;4.50;99.90;;;;;;5009960;28;20573;-61
2021/03/04 07:31:14;;;;;;;92.05;32.70;;;4.50;99.90;;;;;;5002829;28;20037;-62
2021/03/04 07:33:47;;;;;;;101.30;33.95;;;4.50;99.90;;;;;;5006538;28;20026;-61
2021/03/04 07:36:18;;;;;;;81.10;31.33;;;4.50;99.90;;;;;;5013644;28;20114;-57
2021/03/04 07:38:57;;;;;;;85.88;33.58;;;4.60;99.90;;;;;;5014167;28;20030;-61
2021/03/04 07:41:33;;;;;;;82.78;32.78;;;4.50;99.90;;;;;;5032497;28;20022;-61
2021/03/04 07:43:59;;;;;;;81.25;32.13;;;4.50;99.90;;;;;;5032203;28;20639;-61
2021/03/04 07:46:50;;;;;;;77.65;33.58;;;4.50;99.90;;;;;;5011154;28;20079;-60
2021/03/04 07:49:16;;;;;;;75.57;28.27;;;4.60;99.90;;;;;;5011076;28;20025;-61
2021/03/04 07:51:46;;;;;;;80.80;28.58;;;4.50;99.90;;;;;;5007300;28;20409;-63
2021/03/04 07:54:13;;;;;;;69.50;27.88;;;4.50;99.90;;;;;;4995163;28;20025;-64
2021/03/04 07:56:39;;;;;;;80.30;29.15;;;4.60;99.90;;;;;;5012549;28;20026;-61
2021/03/04 07:59:11;;;;;;;76.45;27.77;;;4.60;99.90;;;;;;5011176;28;20025;-61
2021/03/04 08:01:36;;;;;;;78.90;29.23;;;4.60;99.90;;;;;;5020667;28;20022;-62
2021/03/04 08:04:02;;;;;;;72.00;28.42;;;4.50;99.90;;;;;;5011874;28;20020;-63
2021/03/04 08:06:28;;;;;;;73.05;26.52;;;4.50;99.90;;;;;;5011948;28;20029;-62
2021/03/04 08:08:54;;;;;;;69.60;29.23;;;4.60;99.90;;;;;;5013687;28;20057;-63
2021/03/04 08:11:28;;;;;;;68.68;29.25;;;4.60;99.90;;;;;;4994797;28;20030;-63
2021/03/04 08:13:54;;;;;;;72.18;27.67;;;4.60;99.90;;;;;;5011702;28;20762;-61
2021/03/04 08:16:21;;;;;;;67.07;25.58;;;4.50;99.90;;;;;;5011880;28;20077;-63
2021/03/04 08:18:57;;;;;;;66.15;26.10;;;4.40;99.90;;;;;;5010257;28;20040;-63
2021/03/04 08:21:23;;;;;;;78.07;27.42;;;4.40;99.90;;;;;;5008185;28;20034;-62
2021/03/04 08:23:50;;;;;;;74.72;27.60;;;4.30;99.90;;;;;;5021575;28;20018;-61
2021/03/04 08:26:22;;;;;;;71.32;27.00;;;4.20;99.90;;;;;;5013843;28;20032;-63
2021/03/04 08:28:48;;;;;;;71.75;28.73;;;4.30;99.90;;;;;;5020733;28;20026;-61
2021/03/04 08:31:15;;;;;;;65.00;27.50;;;4.30;99.90;;;;;;5017610;28;20084;-63
2021/03/04 08:33:41;;;;;;;64.32;26.08;;;4.30;99.90;;;;;;5007721;28;20037;-62
2021/03/04 08:36:07;;;;;;;56.47;24.65;;;4.20;99.90;;;;;;5014101;28;20109;-64
2021/03/04 08:38:42;;;;;;;64.30;26.40;;;4.20;99.90;;;;;;5030861;28;20492;-63
2021/03/04 08:41:08;;;;;;;69.68;26.73;;;4.20;99.90;;;;;;5031606;28;20021;-63
2021/03/04 08:43:33;;;;;;;56.67;22.80;;;4.20;99.90;;;;;;5030593;28;20021;-63
2021/03/04 08:46:02;;;;;;;63.17;25.35;;;4.20;99.90;;;;;;5013296;28;20022;-58
2021/03/04 08:48:28;;;;;;;63.45;26.58;;;4.20;99.90;;;;;;5013013;28;20395;-61
2021/03/04 08:51:00;;;;;;;63.60;25.65;;;4.20;99.90;;;;;;5031333;28;20030;-62
2021/03/04 08:53:28;;;;;;;57.03;24.55;;;4.20;99.90;;;;;;5013893;28;20122;-61
2021/03/04 08:55:56;;;;;;;71.20;30.02;;;4.20;99.90;;;;;;5031926;28;20485;-62
2021/03/04 08:58:24;;;;;;;60.97;25.58;;;4.20;99.90;;;;;;5030499;28;20501;-62
2021/03/04 09:00:54;;;;;;;68.32;27.58;;;4.20;99.90;;;;;;5013773;28;20107;-60
2021/03/04 09:03:21;;;;;;;76.60;28.27;;;4.10;99.90;;;;;;5010013;28;20026;-60
2021/03/04 09:05:47;;;;;;;64.40;27.58;;;4.20;99.90;;;;;;5011741;28;20030;-61
2021/03/04 09:08:14;;;;;;;59.65;26.17;;;4.10;99.90;;;;;;5010171;28;20072;-62
2021/03/04 09:10:44;;;;;;;69.13;25.65;;;4.10;99.90;;;;;;5009951;28;20419;-63
2021/03/04 09:13:10;;;;;;;66.38;24.88;;;4.10;99.90;;;;;;5009257;28;20053;-64
2021/03/04 09:15:36;;;;;;;72.63;25.27;;;4.20;99.90;;;;;;5010600;28;20529;-61
2021/03/04 09:18:07;;;;;;;67.30;26.67;;;4.30;99.90;;;;;;5011936;28;20026;-62
2021/03/04 09:20:33;;;;;;;58.70;24.02;;;4.30;99.90;;;;;;5011260;28;20029;-60
2021/03/04 09:23:02;;;;;;;57.90;25.08;;;4.40;99.90;;;;;;5011710;28;20451;-57
2021/03/04 09:25:28;;;;;;;59.60;22.67;;;4.50;99.90;;;;;;5011903;28;20026;-63
2021/03/04 09:27:54;;;;;;;62.05;25.73;;;4.50;99.90;;;;;;5014391;28;20037;-61
2021/03/04 09:30:26;;;;;;;57.42;23.45;;;4.60;99.90;;;;;;5002966;28;20397;-64
2021/03/04 09:32:51;;;;;;;52.75;24.88;;;4.70;99.90;;;;;;4997439;28;20030;-53
2021/03/04 09:35:17;;;;;;;52.42;21.67;;;4.80;99.90;;;;;;5014464;28;20510;-60
2021/03/04 09:37:43;;;;;;;48.30;20.60;;;4.70;99.90;;;;;;5014541;28;20231;-61
2021/03/04 09:40:09;;;;;;;56.20;24.48;;;4.60;99.90;;;;;;4996965;28;20492;-60
2021/03/04 09:42:38;;;;;;;49.78;21.85;;;4.70;99.90;;;;;;4997008;28;20034;-61
2021/03/04 09:45:11;;;;;;;47.65;22.20;;;4.80;99.90;;;;;;5015431;28;20465;-55
2021/03/04 09:47:43;;;;;;;51.53;22.38;;;4.70;99.90;;;;;;4997426;28;20041;-57
2021/03/04 09:50:21;;;;;;;53.92;23.35;;;4.60;99.90;;;;;;4996756;28;20056;-58
2021/03/04 09:53:01;;;;;;;52.03;21.30;;;4.50;99.90;;;;;;4997142;28;20034;-55
2021/03/04 09:55:33;;;;;;;55.25;23.30;;;4.60;99.90;;;;;;4997334;28;20168;-63
2021/03/04 09:58:12;;;;;;;52.28;22.33;;;4.50;99.90;;;;;;5014232;28;20018;-63
2021/03/04 10:00:38;;;;;;;50.58;21.77;;;4.60;99.90;;;;;;5014198;28;20363;-62
2021/03/04 10:03:13;;;;;;;49.85;21.52;;;4.60;99.90;;;;;;5008762;28;20393;-62
2021/03/04 10:05:46;;;;;;;49.10;22.02;;;4.50;99.90;;;;;;4994655;28;20543;-64
2021/03/04 10:08:13;;;;;;;55.60;23.85;;;4.50;99.90;;;;;;5014397;28;20037;-61
2021/03/04 10:10:40;;;;;;;53.60;22.70;;;4.50;99.90;;;;;;4996598;28;20393;-62
2021/03/04 10:13:06;;;;;;;49.20;22.05;;;4.40;99.90;;;;;;4996735;28;20088;-60
2021/03/04 10:15:32;;;;;;;52.72;21.15;;;4.60;99.90;;;;;;4981108;28;20037;-63
2021/03/04 10:18:19;;;;;;;45.55;20.98;;;4.50;99.90;;;;;;5014335;28;20034;-64
2021/03/04 10:20:46;;;;;;;44.70;17.85;;;4.40;99.90;;;;;;4996682;28;20564;-63
2021/03/04 10:23:13;;;;;;;41.92;18.33;;;4.40;99.90;;;;;;5014662;28;20026;-64
2021/03/04 10:25:40;;;;;;;39.03;17.40;;;4.50;99.90;;;;;;5010862;28;20363;-64
2021/03/04 10:28:07;;;;;;;40.95;17.38;;;4.60;99.90;;;;;;4996726;28;20022;-64
2021/03/04 10:30:34;;;;;;;40.53;16.10;;;4.60;99.90;;;;;;5013818;28;20033;-64
2021/03/04 10:33:05;;;;;;;35.00;15.60;;;4.70;99.90;;;;;;4996723;28;20137;-63
2021/03/04 10:35:31;;;;;;;35.35;14.98;;;4.50;99.90;;;;;;4996805;28;20025;-65
2021/03/04 10:37:57;;;;;;;35.70;16.88;;;4.60;99.90;;;;;;4996110;28;20073;-64
2021/03/04 10:40:23;;;;;;;38.97;16.60;;;4.50;99.90;;;;;;5013772;28;20026;-65
2021/03/04 10:42:49;;;;;;;38.40;17.83;;;4.60;99.90;;;;;;5013456;28;20030;-64
2021/03/04 10:45:17;;;;;;;41.88;18.10;;;4.60;99.90;;;;;;4996928;28;20022;-66
2021/03/04 10:47:44;;;;;;;41.40;18.60;;;4.60;99.90;;;;;;5013995;28;20025;-64
2021/03/04 10:50:13;;;;;;;45.80;19.50;;;4.70;99.90;;;;;;5013634;28;20034;-66
2021/03/04 10:52:39;;;;;;;39.63;18.27;;;4.60;99.90;;;;;;5014063;28;20022;-64
2021/03/04 10:55:09;;;;;;;45.92;18.95;;;4.60;99.90;;;;;;5013993;28;20081;-65
2021/03/04 10:57:35;;;;;;;41.08;18.33;;;4.60;99.90;;;;;;5013688;28;20112;-65
2021/03/04 11:00:03;;;;;;;44.03;16.92;;;4.70;99.90;;;;;;5013459;28;20022;-65
2021/03/04 11:02:29;;;;;;;43.47;18.58;;;4.70;99.90;;;;;;4996502;28;20017;-65
2021/03/04 11:04:54;;;;;;;41.33;18.33;;;4.70;99.90;;;;;;4996581;28;20026;-65
2021/03/04 11:07:20;;;;;;;39.10;17.25;;;4.90;99.90;;;;;;5013687;28;20049;-63
2021/03/04 11:09:46;;;;;;;38.53;17.98;;;4.70;99.90;;;;;;5012970;28;20026;-65
2021/03/04 11:12:12;;;;;;;42.50;17.80;;;4.60;99.90;;;;;;4979641;28;20473;-65
2021/03/04 11:14:38;;;;;;;40.97;18.08;;;4.60;99.90;;;;;;4995915;28;20034;-65
2021/03/04 11:17:04;;;;;;;35.83;16.25;;;4.60;99.90;;;;;;4995897;28;20022;-64
2021/03/04 11:19:31;;;;;;;40.08;16.15;;;4.60;99.90;;;;;;4994949;28;20030;-65
2021/03/04 11:21:57;;;;;;;35.83;16.50;;;4.60;99.90;;;;;;4996011;28;20022;-63
2021/03/04 11:24:23;;;;;;;40.03;16.00;;;4.60;99.90;;;;;;5013504;28;20026;-63
2021/03/04 11:26:49;;;;;;;36.10;17.35;;;4.50;99.90;;;;;;5012314;28;20030;-64
2021/03/04 11:29:14;;;;;;;40.03;17.55;;;4.50;99.90;;;;;;5012520;28;20049;-65
2021/03/04 11:31:40;;;;;;;34.80;15.20;;;4.50;99.90;;;;;;4995518;28;20087;-65
2021/03/04 11:34:06;;;;;;;36.42;15.30;;;4.50;99.90;;;;;;4979456;28;20042;-65
2021/03/04 11:36:33;;;;;;;36.80;16.63;;;4.40;99.90;;;;;;5012859;28;20666;-65
2021/03/04 11:39:01;;;;;;;35.05;15.00;;;4.40;99.90;;;;;;5011865;28;20114;-65
2021/03/04 11:41:27;;;;;;;36.17;14.77;;;4.50;99.90;;;;;;4994794;28;20025;-65
2021/03/04 11:43:52;;;;;;;31.42;14.43;;;4.40;99.90;;;;;;5012795;28;20040;-64
2021/03/04 11:46:18;;;;;;;30.63;13.27;;;4.50;99.90;;;;;;4994924;28;20022;-64
2021/03/04 11:48:49;;;;;;;28.42;11.70;;;4.50;99.90;;;;;;5011194;28;20099;-63
2021/03/04 11:51:15;;;;;;;31.60;13.68;;;4.70;99.90;;;;;;5012272;28;20048;-63
2021/03/04 11:53:41;;;;;;;29.45;12.80;;;4.50;99.90;;;;;;4994921;28;20056;-63
2021/03/04 11:56:07;;;;;;;31.63;13.50;;;4.40;99.90;;;;;;5011829;28;20029;-64
2021/03/04 11:58:33;;;;;;;29.30;12.25;;;4.50;99.90;;;;;;5011866;28;20033;-64
2021/03/04 12:00:59;;;;;;;28.55;12.52;;;4.60;99.90;;;;;;5020602;28;20021;-63
2021/03/04 12:03:25;;;;;;;24.73;10.77;;;4.70;99.90;;;;;;5017444;28;20156;-67
2021/03/04 12:05:51;;;;;;;25.00;11.00;;;4.80;99.90;;;;;;5008614;28;20045;-65
2021/03/04 12:08:18;;;;;;;27.45;11.48;;;4.90;99.90;;;;;;5009677;28;20018;-65
2021/03/04 12:10:46;;;;;;;27.95;11.20;;;5.00;99.90;;;;;;5020077;28;20029;-65
2021/03/04 12:13:12;;;;;;;29.23;12.68;;;4.90;99.90;;;;;;5024799;28;20056;-65
2021/03/04 12:15:40;;;;;;;26.95;10.35;;;4.90;99.90;;;;;;4996953;28;20032;-65
2021/03/04 12:18:06;;;;;;;26.77;11.23;;;4.90;99.90;;;;;;4993902;28;20032;-65
2021/03/04 12:20:32;;;;;;;22.73;10.43;;;4.90;99.90;;;;;;5011420;28;20460;-65
2021/03/04 12:22:58;;;;;;;23.38;11.13;;;5.00;99.90;;;;;;5012811;28;20064;-65
2021/03/04 12:25:25;;;;;;;24.30;10.57;;;4.70;99.90;;;;;;5012913;28;20390;-65
2021/03/04 12:27:50;;;;;;;28.27;12.70;;;4.70;99.90;;;;;;4996230;28;20029;-65
2021/03/04 12:30:17;;;;;;;26.23;10.98;;;4.80;99.90;;;;;;4997564;28;20397;-65
2021/03/04 12:32:43;;;;;;;30.58;12.25;;;4.80;99.90;;;;;;5014802;28;20139;-66
2021/03/04 12:35:11;;;;;;;25.95;11.07;;;4.90;99.90;;;;;;5013685;28;20030;-64
2021/03/04 12:37:38;;;;;;;28.70;13.00;;;4.80;99.90;;;;;;5013168;28;20083;-65
2021/03/04 12:40:05;;;;;;;32.67;14.70;;;4.70;99.90;;;;;;4995065;28;20049;-65